Aérodrome :
LOGIN :

S'inscrire | Disclaimer

   EN    FR    IT 

 










Légende :    VFR   VFR Marginal   IFR   IFR Intensif   IFR Très Intensif
Visi : 
Plafond : 
>= 8 km
>= 3000ft
5 à 8 km
1000 à 3000 ft
1500m à 5 km
500 à 1000 ft
800 à 1500m
200 à 500 ft
< 800m
< 200 ft
Symboles :   Orages  Brouillard  Fortes neiges  Fortes précipitations  Vent > 20 kt
SIGMETs :   Divers  Orages  Givrage  Turbulence  Onde Orograph.  Cendres Volcan.







- Altitude de l'aérodrome : 529 ft
- Code IATA : CHR
- Voir les cartes d'approche


LFLX - Chateauroux

METARs EXPIRÉS :
  • 241430Z AUTO 25009KT 210V290 CAVOK 25/11 Q1019 NOSIG
  • 241400Z AUTO VRB08KT CAVOK 25/11 Q1019 NOSIG
  • 241330Z AUTO 30007KT 280V350 CAVOK 24/11 Q1020 NOSIG
  • 241300Z AUTO 26008KT 180V320 CAVOK 25/11 Q1020 NOSIG
  • 241230Z AUTO VRB06KT 9999 FEW049 24/11 Q1020 NOSIG
  • 241200Z AUTO 30010KT 250V340 9999 BKN047 24/12 Q1020 NOSIG

TAF TAF LFLX
Valide du 23 à 18h jusqu'au 25 à 00h UTC


231700Z 2318/2424 22010KT CAVOK
BECMG 2318/2320 28006KT
BECMG 2406/2408 SCT035
BECMG 2410/2412 CAVOK
TEMPO 2412/2420 28010G20KT
Pas de NOTAMs connus pour ce terrain.



MET'MAP, la Météo Aéronautique d'un coup d'oeil ! - Copyright ORBIFLY Décembre 2007 - Disclaimer

ORBIFLY MET'MAP TEAM :

Programmation & Développement : Alexandra Zaïnal
Conception & Développement : Baudouin d'Aumeries
Co-Programmation & Développement : Marc-Olivier Méhu
Soutien technique & logistique : Manuel Goepfert

Contact : metmap@orbifly.com




SOURCES & CREDITS :

   NOAA